Relevés horaires Semmerzake (Belgique)


Relevés horaires à Semmerzake - Jeudi 15 Juill. 2021
Heure UTC1 Température [°C] Vent [km/h] Hum. [%] Pres.4 [hPa] Visi. [Km] Nébu. [octa] Préc.5 [mm] Cond.
2m. Res. Ros. Dir.2 Vit. Moy. Raf.3
23:00 16.8 16.8 13.7 N 9.3 -- 16.7 82 1021.6(0.9/3h) 19 -- -- --
22:00 16.8 16.8 14.0 N 9.3 -- 16.7 84 1021.5(1.5/3h) 17 -- -- --
21:00 16.8 16.8 14.1 N 7.4 -- 18.5 84 1021.1(1.4/3h) 19 -- -- --
20:00 16.9 16.9 14.2 N 9.3 -- 16.7 84 1020.6(0.9/3h) 17 -- -- --
19:00 17.2 17.2 14.5 N 9.3 -- 18.5 84 1020(0.6/3h) 17 -- -- --
18:00 17.3 17.3 14.2 NNO 9.3 -- 24.1 82 1019.7(0.5/3h) 17 -- -- --
17:00 17.3 17.1 14.1 N 13.0 -- 24.1 81 1019.6(0.9/3h) 18 -- -- --
16:00 17.5 17.5 14.3 NNO 11.1 -- 20.4 82 1019.2(0.8/3h) 18 -- -- --
15:00 17.9 17.9 14.5 N 11.1 -- 20.4 81 1019.2(0.9/3h) 19 -- -- --
14:00 18.1 18 14.7 N 13.0 -- 20.4 81 1018.7(1.0/3h) 16 -- -- --
13:00 18.0 18.0 14.7 NNO 11.1 -- 20.4 81 1018.3(1.2/3h) 13 -- -- --
12:00 18.1 18.1 14.9 NNO 9.3 -- 22.2 82 1018.1(1.3/3h) 12 -- -- --
11:00 17.9 17.9 14.6 N 11.1 -- 22.2 81 1017.6(1.0/3h) 13 -- -- --
10:00 18.1 18.1 14.9 NNO 11.1 -- 22.2 82 1017.2(1.2/3h) 16 -- -- --
09:00 17.6 17.6 14.8 NNO 11.1 -- 22.2 84 1016.7(0.7/3h) 12 -- -- --
08:00 17.2 17.1 15.0 NNO 11.1 -- 22.2 87 1016.5(0.7/3h) 11 -- -- --
07:00 17.0 17.0 15.0 NNO 9.3 -- 16.7 88 1016(0.8/3h) 11 -- -- --
06:00 16.5 16.5 15.0 NNO 9.3 -- 20.4 91 1016(0.9/3h) 10 -- -- --
05:00 16.2 16.1 15.2 NNO 9.3 -- 18.5 94 1015.7(0.4/3h) 8 -- -- --
04:00 16.1 16 14.9 NNO 9.3 -- 18.5 93 1015.1(-0.2/3h) 8 -- -- --
03:00 16.2 16.1 14.7 NNO 9.3 -- 20.4 91 1015(0.0/3h) 9 -- -- --
02:00 16.3 16.2 14.6 NNO 9.3 -- 16.7 90 1015.2(0.2/3h) 10 -- -- --
01:00 16.3 16.2 14.9 NNO 9.3 -- 16.7 91 1015.3(0.3/3h) 10 -- -- --
00:00 16.2 16.1 14.8 NO 9.3 -- 22.2 91 1015(0.2/3h) 9 -- -- --

1 Coordinated Universal Time. Actuellement il est 23:00 locale et 21:00 UTC.

2 Le vent souffle depuis la direction indiquée vers la direction oposée.

3 Les rafales max. sont disponible 40 min après l'heure du relevé.

4 Pour les stations d'altitude (plus de 600m) le géopotentiel du niveau le plus proche de la pression obligatoire est indiqué.

5 Les stations disposant d'un diffuseur peuvent indiquer "trace". Cela signifie que des précipitations ont touchés le sol mais que la quantité est inférieure à 0.1 mm.

Récapitulatif de la journée
Température [°C] Vent [km/h] Ensoleillement4 [h] Precipitations totale5 [mm] Pression [Hpa]
Min1 Max.2 Moy.3 Max. Min Max.
16.1 18.6 0 24.1 0 h 0 min 0 1015.0 1021.6

1 Température minimale relevée entre 18:00 UTC la veille et 18:00 UTC le jour donné.

2 Température maximale relevée entre 06:00 UTC le jour donné et 06:00 UTC le lendemain.

3 Vent moyen de la journée basé sur les relevés horaires.

4 Ensoleillement en heures relevé entre 06:00 UTC la veille et 06:00 UTC le jour donné.

5 Précipitations totales tombées entre 06:00 UTC la jour donné et 06:00 UTC le lendemain.

Graphiques horaires